createdAt,value
2022-12-19T00:04:45.386Z,20.87
2022-12-19T00:09:47.420Z,23.20
2022-12-19T00:14:49.552Z,22.27
2022-12-19T00:19:53.203Z,24.37
2022-12-19T00:24:55.536Z,23.10
2022-12-19T00:29:57.253Z,22.47
2022-12-19T00:35:01.661Z,15.83
2022-12-19T00:40:04.546Z,17.10
2022-12-19T00:45:07.441Z,15.87
2022-12-19T00:50:11.378Z,13.07
2022-12-19T00:55:18.523Z,19.83
2022-12-19T01:00:21.824Z,16.53
2022-12-19T01:05:25.269Z,20.70
2022-12-19T01:10:27.588Z,16.37
2022-12-19T01:15:29.588Z,15.40
2022-12-19T01:20:33.105Z,14.07
2022-12-19T01:25:36.885Z,24.37
2022-12-19T01:30:41.970Z,20.83
2022-12-19T01:35:47.624Z,18.03
2022-12-19T01:40:51.480Z,15.27
2022-12-19T01:45:57.163Z,16.40
2022-12-19T01:51:02.871Z,15.83
2022-12-19T01:56:07.635Z,15.80
2022-12-19T02:01:09.717Z,15.07
2022-12-19T02:06:18.951Z,18.80
2022-12-19T02:11:21.113Z,13.80
2022-12-19T02:16:36.794Z,15.13
2022-12-19T02:27:42.019Z,13.17
2022-12-19T02:32:51.779Z,16.63
2022-12-19T02:38:03.653Z,21.90
2022-12-19T02:43:11.473Z,15.87
2022-12-19T02:48:19.275Z,17.00
2022-12-19T02:53:23.619Z,10.60
2022-12-19T02:58:49.045Z,13.67
2022-12-19T03:04:04.275Z,13.60
2022-12-19T03:09:16.236Z,13.50
2022-12-19T03:14:20.933Z,16.70
2022-12-19T03:19:24.541Z,16.73
2022-12-19T03:24:26.785Z,15.40
2022-12-19T03:29:33.133Z,17.53
2022-12-19T03:34:41.607Z,17.00
2022-12-19T03:39:49.196Z,15.70
2022-12-19T03:44:53.934Z,22.43
2022-12-19T03:49:57.780Z,16.33
2022-12-19T03:55:06.575Z,15.93
2022-12-19T04:00:11.901Z,19.13
2022-12-19T04:05:19.574Z,20.67
2022-12-19T04:10:25.070Z,15.10
2022-12-19T04:15:35.044Z,15.63
2022-12-19T04:20:43.086Z,18.37
2022-12-19T04:25:48.323Z,15.10
2022-12-19T04:30:50.980Z,17.57
2022-12-19T04:35:54.589Z,13.60
2022-12-19T04:40:56.304Z,16.43
2022-12-19T04:45:58.455Z,13.73
2022-12-19T04:51:02.084Z,15.40
2022-12-19T04:56:06.013Z,17.73
2022-12-19T05:01:08.671Z,17.73
2022-12-19T05:06:14.387Z,13.80
2022-12-19T05:11:19.759Z,15.77
2022-12-19T05:16:21.947Z,20.53
2022-12-19T05:21:25.332Z,18.80
2022-12-19T05:26:27.537Z,20.20
2022-12-19T05:31:29.745Z,18.87
2022-12-19T05:36:33.304Z,18.00
2022-12-19T05:41:35.545Z,15.67
2022-12-19T05:46:37.427Z,20.37
2022-12-19T05:51:40.929Z,19.27
2022-12-19T05:56:42.850Z,19.20
2022-12-19T06:01:45.242Z,23.47
2022-12-19T06:06:48.390Z,17.00
2022-12-19T06:11:50.509Z,16.87
2022-12-19T06:16:52.633Z,21.93
2022-12-19T06:21:56.163Z,18.83
2022-12-19T06:26:58.350Z,20.10
2022-12-19T06:32:00.428Z,18.50
2022-12-19T06:37:08.135Z,18.13
2022-12-19T06:42:10.722Z,16.10
2022-12-19T06:47:12.808Z,20.80
2022-12-19T06:52:16.437Z,17.23
2022-12-19T06:57:18.786Z,19.57
2022-12-19T07:02:27.713Z,19.17
2022-12-19T07:07:31.486Z,16.80
2022-12-19T07:12:33.615Z,20.97
2022-12-19T07:17:35.700Z,19.80
2022-12-19T07:22:39.566Z,16.90
2022-12-19T07:27:41.740Z,19.07
2022-12-19T07:32:43.467Z,17.20
2022-12-19T07:37:47.155Z,21.30
2022-12-19T07:42:48.953Z,14.77
2022-12-19T07:47:51.241Z,13.87
2022-12-19T07:52:54.410Z,12.67
2022-12-19T07:57:56.568Z,18.40
2022-12-19T08:02:59.194Z,12.90
2022-12-19T08:08:02.606Z,14.80
2022-12-19T08:13:04.699Z,14.23
2022-12-19T08:18:06.462Z,12.60
2022-12-19T08:23:09.568Z,19.03
2022-12-19T08:28:11.382Z,12.17
2022-12-19T08:33:13.116Z,13.03
2022-12-19T08:38:16.785Z,14.43
2022-12-19T08:43:18.484Z,15.07
2022-12-19T08:48:20.372Z,12.80
2022-12-19T08:53:26.633Z,15.47
2022-12-19T08:58:29.871Z,11.57
2022-12-19T09:03:44.182Z,13.93
2022-12-19T09:09:00.023Z,10.73
2022-12-19T09:14:02.492Z,12.33
2022-12-19T09:19:04.485Z,12.83
2022-12-19T09:24:10.070Z,14.77
2022-12-19T09:29:20.302Z,12.70
2022-12-19T09:34:24.366Z,11.60
2022-12-19T09:39:37.191Z,19.40
2022-12-19T09:44:56.496Z,16.37
2022-12-19T09:49:59.576Z,13.77
2022-12-19T09:55:06.280Z,15.93
2022-12-19T10:00:13.472Z,14.23
2022-12-19T10:05:46.657Z,16.53
2022-12-19T10:12:38.035Z,21.77
2022-12-19T10:16:25.623Z,16.07
2022-12-19T10:22:07.597Z,12.70
2022-12-19T10:26:59.633Z,16.27
2022-12-19T10:32:08.215Z,14.50
2022-12-19T10:37:26.626Z,13.40
2022-12-19T10:42:46.322Z,13.00
2022-12-19T10:47:51.759Z,16.40
2022-12-19T10:52:55.891Z,17.90
2022-12-19T10:58:00.160Z,15.63
2022-12-19T11:03:13.222Z,17.97
2022-12-19T11:08:21.181Z,15.53
2022-12-19T11:18:22.320Z,13.93
2022-12-19T11:29:15.977Z,19.03
2022-12-19T11:30:41.547Z,17.60
2022-12-19T11:35:18.161Z,20.10
2022-12-19T11:40:31.438Z,17.30
2022-12-19T11:45:45.346Z,22.40
2022-12-19T11:50:59.858Z,19.60
2022-12-19T11:56:16.264Z,16.50
2022-12-19T12:01:36.480Z,23.93
2022-12-19T12:06:47.403Z,17.70
2022-12-19T12:15:47.234Z,19.93
2022-12-19T12:31:01.482Z,14.70
2022-12-19T12:31:51.533Z,15.03
2022-12-19T12:31:54.265Z,20.00
2022-12-19T12:35:28.680Z,16.30
2022-12-19T12:40:23.940Z,19.77
2022-12-19T12:45:35.082Z,20.73
2022-12-19T12:50:41.181Z,17.90
2022-12-19T12:55:43.077Z,22.47
2022-12-19T13:01:09.043Z,19.47
2022-12-19T13:06:26.062Z,19.30
2022-12-19T13:11:41.190Z,20.27
2022-12-19T13:16:51.873Z,23.47
2022-12-19T13:22:18.289Z,20.00
2022-12-19T13:27:36.270Z,21.93
2022-12-19T13:33:07.364Z,19.13
2022-12-19T13:39:54.016Z,18.00
2022-12-19T13:43:44.245Z,21.13
2022-12-19T13:48:49.499Z,20.67
2022-12-19T13:53:59.622Z,22.53
2022-12-19T13:59:04.238Z,21.23
2022-12-19T14:04:08.743Z,18.07
2022-12-19T14:11:26.193Z,23.33
2022-12-19T14:15:13.407Z,22.77
2022-12-19T14:22:02.404Z,24.17
2022-12-19T14:28:22.203Z,25.40
2022-12-19T14:31:14.533Z,31.87
2022-12-19T14:36:26.492Z,26.27
2022-12-19T14:41:43.549Z,25.80
2022-12-19T14:54:07.606Z,30.07
2022-12-19T14:54:35.848Z,25.67
2022-12-19T14:58:52.969Z,30.43
2022-12-19T15:03:31.822Z,27.90
2022-12-19T15:09:34.279Z,28.27
2022-12-19T15:14:57.105Z,33.03
2022-12-19T15:19:27.066Z,25.57
2022-12-19T15:24:28.908Z,27.77
2022-12-19T15:29:34.092Z,24.57
2022-12-19T15:34:41.590Z,26.10
2022-12-19T15:39:47.115Z,25.20
2022-12-19T15:44:52.958Z,27.63
2022-12-19T15:49:54.708Z,28.23
2022-12-19T15:54:56.563Z,32.03
2022-12-19T16:00:02.363Z,36.43
2022-12-19T16:05:05.204Z,30.03
2022-12-19T16:10:08.870Z,30.33
2022-12-19T16:15:19.798Z,32.60
2022-12-19T16:20:23.861Z,34.47
2022-12-19T16:25:32.475Z,31.37
2022-12-19T16:30:35.760Z,31.50
2022-12-19T16:40:59.318Z,26.90
2022-12-19T16:46:05.740Z,32.10
2022-12-19T16:51:16.715Z,29.57
2022-12-19T16:56:24.566Z,31.27
2022-12-19T17:01:28.531Z,33.33
2022-12-19T17:06:30.998Z,38.00
2022-12-19T17:11:33.489Z,36.93
2022-12-19T17:16:37.466Z,30.33
2022-12-19T17:21:39.308Z,35.07
2022-12-19T17:26:41.611Z,31.47
2022-12-19T17:31:45.174Z,32.83
2022-12-19T17:36:47.315Z,29.33
2022-12-19T17:41:49.925Z,35.00
2022-12-19T17:46:53.201Z,34.73
2022-12-19T17:51:55.871Z,36.70
2022-12-19T17:56:58.374Z,38.03
2022-12-19T18:02:01.929Z,34.90
2022-12-19T18:07:09.748Z,32.40
2022-12-19T18:12:11.510Z,34.73
2022-12-19T18:17:21.591Z,32.40
2022-12-19T18:22:23.393Z,30.70
2022-12-19T18:27:25.122Z,34.10
2022-12-19T18:32:28.460Z,35.00
2022-12-19T18:37:30.852Z,33.27
2022-12-19T18:42:32.983Z,34.03
2022-12-19T18:47:36.430Z,34.83
2022-12-19T18:52:38.730Z,34.33
2022-12-19T18:57:40.464Z,31.17
2022-12-19T19:02:49.093Z,43.33
2022-12-19T19:07:51.383Z,30.50
2022-12-19T19:12:53.970Z,39.53
2022-12-19T19:17:59.960Z,32.57
2022-12-19T19:23:02.575Z,35.33
2022-12-19T19:28:05.395Z,33.53
2022-12-19T19:33:13.524Z,35.90
2022-12-19T19:38:17.001Z,28.57
2022-12-19T19:43:21.735Z,36.93
2022-12-19T19:48:25.645Z,35.83
2022-12-19T19:53:28.396Z,32.20
2022-12-19T19:58:30.974Z,29.33
2022-12-19T20:03:36.241Z,30.30
2022-12-19T20:08:39.971Z,27.33
2022-12-19T20:13:43.360Z,29.27
2022-12-19T20:18:49.588Z,35.07
2022-12-19T20:23:53.805Z,30.93
2022-12-19T20:28:56.521Z,26.77
2022-12-19T20:34:00.115Z,32.53
2022-12-19T20:39:02.570Z,27.47
2022-12-19T20:44:05.055Z,29.70
2022-12-19T20:49:09.454Z,26.87
2022-12-19T20:54:11.628Z,31.77
2022-12-19T20:59:13.717Z,29.80
2022-12-19T21:04:17.454Z,24.73
2022-12-19T21:09:19.651Z,25.93
2022-12-19T21:14:21.425Z,22.40
2022-12-19T21:19:25.001Z,23.80
2022-12-19T21:24:26.865Z,24.03
2022-12-19T21:29:29.520Z,23.40
2022-12-19T21:34:32.797Z,17.83
2022-12-19T21:39:34.931Z,22.97
2022-12-19T21:44:37.397Z,24.53
2022-12-19T21:49:40.768Z,26.50
2022-12-19T21:54:42.953Z,20.47
2022-12-19T21:59:45.040Z,26.33
2022-12-19T22:04:49.865Z,21.43
2022-12-19T22:09:52.268Z,17.20
2022-12-19T22:14:54.101Z,21.30
2022-12-19T22:19:57.542Z,20.67
2022-12-19T22:24:59.636Z,22.80
2022-12-19T22:30:06.764Z,18.23
2022-12-19T22:35:14.355Z,19.83
2022-12-19T22:40:16.617Z,18.10
2022-12-19T22:45:18.729Z,18.07
2022-12-19T22:50:22.391Z,18.63
2022-12-19T22:55:24.497Z,15.50
2022-12-19T23:00:26.240Z,19.20
2022-12-19T23:05:29.965Z,17.53
2022-12-19T23:10:32.420Z,17.43
2022-12-19T23:15:35.168Z,21.00
2022-12-19T23:20:38.846Z,16.00
2022-12-19T23:25:42.415Z,17.67
2022-12-19T23:30:44.537Z,17.00
2022-12-19T23:35:47.983Z,13.33
2022-12-19T23:40:49.905Z,15.70
2022-12-19T23:45:52.101Z,14.00
2022-12-19T23:51:00.087Z,15.00
2022-12-19T23:56:03.794Z,17.23
